Time;durP1;ratioP1;P1;durP2;ratioP2;P2;SDS_P1;SDS_P2;PMS_P1;PMS_P2;Temp;Humidity;BMP_temperature;BMP_pressure;BME280_temperature;BME280_humidity;BME280_pressure;Samples;Min_cycle;Max_cycle;Signal;HPM_P1;HPM_P2
2023/11/22 00:01:37;;;;;;;7.53;5.90;;;;;;;-6.81;100.00;102448.31;5032864;28;20037;-67
2023/11/22 00:04:03;;;;;;;7.97;5.80;;;;;;;-6.84;100.00;102441.44;5015917;28;20041;-66
2023/11/22 00:06:29;;;;;;;8.77;5.77;;;;;;;-6.72;100.00;102464.63;5032628;28;20037;-67
2023/11/22 00:08:55;;;;;;;8.35;6.53;;;;;;;-6.76;100.00;102457.75;5033493;28;20040;-68
2023/11/22 00:11:20;;;;;;;6.73;5.67;;;;;;;-6.69;100.00;102464.63;5033801;28;20034;-68
2023/11/22 00:13:46;;;;;;;7.77;5.50;;;;;;;-6.78;100.00;102454.31;5032460;28;20528;-68
2023/11/22 00:16:12;;;;;;;6.00;5.10;;;;;;;-6.93;100.00;102425.97;5033697;28;20401;-66
2023/11/22 00:18:38;;;;;;;7.50;5.00;;;;;;;-6.81;100.00;102448.31;5032397;28;20116;-67
2023/11/22 00:21:04;;;;;;;8.23;5.60;;;;;;;-6.92;100.00;102422.50;5031905;28;20040;-65
2023/11/22 00:23:30;;;;;;;6.63;4.95;;;;;;;-6.88;100.00;102426.78;5033248;28;20045;-66
2023/11/22 00:25:56;;;;;;;8.50;5.50;;;;;;;-7.02;100.00;102415.66;5033383;28;20043;-68
2023/11/22 00:28:24;;;;;;;7.35;5.68;;;;;;;-6.93;100.00;102418.19;5033599;28;20072;-66
2023/11/22 00:30:49;;;;;;;5.45;4.40;;;;;;;-6.73;100.00;102442.19;5033656;28;20045;-68
2023/11/22 00:33:15;;;;;;;6.30;5.03;;;;;;;-7.24;100.00;102361.41;5033595;28;20048;-67
2023/11/22 00:35:40;;;;;;;6.43;5.47;;;;;;;-6.82;100.00;102420.69;5033617;28;20072;-68
2023/11/22 00:38:06;;;;;;;6.63;5.87;;;;;;;-6.83;100.00;102417.25;5033040;28;20136;-67
2023/11/22 00:40:32;;;;;;;6.87;5.10;;;;;;;-6.82;100.00;102416.38;5033696;28;20136;-66
2023/11/22 00:42:58;;;;;;;6.10;5.50;;;;;;;-7.15;100.00;102364.81;5015716;28;20045;-67
2023/11/22 00:45:24;;;;;;;8.48;5.05;;;;;;;-6.90;100.00;102400.88;5033108;28;20033;-67
2023/11/22 00:47:52;;;;;;;5.80;5.20;;;;;;;-6.66;100.00;102449.03;5033284;28;20049;-67
2023/11/22 00:50:21;;;;;;;5.82;5.10;;;;;;;-6.73;100.00;102430.97;5033467;28;20033;-66
2023/11/22 00:52:48;;;;;;;5.72;4.70;;;;;;;-6.81;100.00;102417.22;5032036;28;20128;-68
2023/11/22 00:55:13;;;;;;;5.10;4.60;;;;;;;-6.78;100.00;102417.19;5032811;28;20477;-69
2023/11/22 00:57:40;;;;;;;6.47;5.47;;;;;;;-6.73;100.00;102431.81;5033134;28;20037;-69
2023/11/22 01:00:09;;;;;;;5.45;4.90;;;;;;;-6.74;100.00;102439.63;5033603;28;20048;-67
2023/11/22 01:02:37;;;;;;;;;;;;;;;-6.72;100.00;102433.53;5031919;28;20041;-66
2023/11/22 01:05:17;;;;;;;5.47;4.90;;;;;;;-6.72;100.00;102440.47;5032843;28;20308;-66
2023/11/22 01:07:43;;;;;;;5.35;4.85;;;;;;;-6.77;100.00;102429.28;5032615;28;20451;-66
2023/11/22 01:10:09;;;;;;;6.40;5.33;;;;;;;-6.88;100.00;102409.50;5032585;28;20057;-68
2023/11/22 01:12:34;;;;;;;6.50;5.00;;;;;;;-6.82;100.00;102416.38;5031715;28;20538;-66
2023/11/22 01:15:00;;;;;;;7.47;5.37;;;;;;;-6.83;100.00;102418.97;5032886;28;20057;-66
2023/11/22 01:17:25;;;;;;;7.30;5.13;;;;;;;-6.83;100.00;102413.78;5032799;28;20123;-66
2023/11/22 01:19:52;;;;;;;7.70;5.23;;;;;;;-6.74;100.00;102424.94;5034075;28;20037;-69
2023/11/22 01:22:17;;;;;;;6.57;5.85;;;;;;;-6.74;100.00;102429.25;5034316;28;20042;-66
2023/11/22 01:24:43;;;;;;;8.67;5.57;;;;;;;-7.15;100.00;102364.81;5032484;28;20060;-66
2023/11/22 01:27:10;;;;;;;10.53;5.80;;;;;;;-6.74;100.00;102442.22;5032453;28;20057;-68
2023/11/22 01:29:36;;;;;;;12.52;5.53;;;;;;;-6.93;100.00;102413.00;5032377;28;20457;-68
2023/11/22 01:32:02;;;;;;;7.27;6.27;;;;;;;-7.03;100.00;102406.16;5032743;28;20071;-67
2023/11/22 01:34:29;;;;;;;6.55;5.70;;;;;;;-6.97;100.00;102416.47;5030758;28;20048;-64
2023/11/22 01:36:54;;;;;;;7.53;5.22;;;;;;;-6.95;100.00;102418.16;5032248;28;20087;-67
2023/11/22 01:39:20;;;;;;;6.97;4.90;;;;;;;-6.88;100.00;102424.19;5033110;28;20037;-68
2023/11/22 01:41:49;;;;;;;7.82;5.80;;;;;;;-6.82;100.00;102431.91;5031579;28;20475;-66
2023/11/22 01:44:16;;;;;;;5.75;5.18;;;;;;;-6.77;100.00;102440.50;5031930;28;20041;-69
2023/11/22 01:46:42;;;;;;;6.75;5.68;;;;;;;-6.90;100.00;102421.63;5032024;28;20033;-67
2023/11/22 01:49:10;;;;;;;8.52;5.63;;;;;;;-6.89;100.00;102419.88;5032037;28;20049;-68
2023/11/22 01:51:37;;;;;;;11.10;6.10;;;;;;;-6.77;100.00;102437.91;5032114;28;20068;-67
2023/11/22 01:54:04;;;;;;;7.25;5.82;;;;;;;-6.75;100.00;102432.72;5032445;28;20033;-67
2023/11/22 01:56:31;;;;;;;9.15;5.85;;;;;;;-6.78;100.00;102438.78;5031996;28;20516;-67
2023/11/22 01:58:57;;;;;;;8.93;5.75;;;;;;;-6.71;100.00;102450.81;5032508;28;20045;-66
2023/11/22 02:01:25;;;;;;;7.60;6.13;;;;;;;-6.84;100.00;102422.44;5031272;28;20470;-68
2023/11/22 02:03:52;;;;;;;8.52;6.15;;;;;;;-6.63;100.00;102446.47;5031268;28;20052;-68
2023/11/22 02:06:18;;;;;;;6.82;5.97;;;;;;;-7.04;100.00;102370.78;5014549;28;20381;-70
2023/11/22 02:08:44;;;;;;;9.48;6.00;;;;;;;-6.79;100.00;102405.97;5031903;28;20029;-67
2023/11/22 02:11:09;;;;;;;8.53;5.93;;;;;;;-6.70;100.00;102416.25;5030687;28;20037;-65
2023/11/22 02:13:36;;;;;;;10.37;6.57;;;;;;;-6.59;100.00;102430.00;5031765;28;20045;-67
2023/11/22 02:16:03;;;;;;;8.35;5.60;;;;;;;-6.68;100.00;102419.69;5030138;28;20034;-69
2023/11/22 02:18:29;;;;;;;7.72;5.15;;;;;;;-6.76;100.00;102399.91;5031666;28;20033;-69
2023/11/22 02:20:56;;;;;;;7.28;5.18;;;;;;;-6.50;100.00;102443.75;5032157;28;20504;-70
2023/11/22 02:23:22;;;;;;;8.85;5.63;;;;;;;-6.49;100.00;102446.31;5033109;28;20044;-68
2023/11/22 02:25:48;;;;;;;7.30;5.60;;;;;;;-6.65;100.00;102424.88;5032824;28;20029;-68
2023/11/22 02:28:14;;;;;;;9.57;5.40;;;;;;;-6.45;100.00;102447.16;5032187;28;20455;-71
2023/11/22 02:30:41;;;;;;;7.32;5.25;;;;;;;-6.45;100.00;102453.19;5030154;28;20523;-71
2023/11/22 02:33:07;;;;;;;9.32;6.25;;;;;;;-6.45;100.00;102450.59;5030380;28;20046;-70
2023/11/22 02:35:33;;;;;;;8.57;5.87;;;;;;;-6.59;100.00;102435.19;5031390;28;20038;-69
2023/11/22 02:38:00;;;;;;;6.85;6.07;;;;;;;-6.48;100.00;102449.78;5031951;28;20527;-68
2023/11/22 02:40:25;;;;;;;8.73;6.25;;;;;;;-6.53;100.00;102448.97;5013668;28;20046;-69
2023/11/22 02:42:53;;;;;;;14.20;7.30;;;;;;;-6.60;100.00;102436.06;5031262;28;20078;-65
2023/11/22 02:45:24;;;;;;;10.55;6.88;;;;;;;-6.88;100.00;102382.75;5032365;28;20037;-65
2023/11/22 02:47:50;;;;;;;7.53;6.30;;;;;;;-6.51;100.00;102447.22;5034034;28;20033;-66
2023/11/22 02:50:16;;;;;;;9.45;5.05;;;;;;;-6.59;100.00;102414.44;5033952;28;20033;-68
2023/11/22 02:52:42;;;;;;;7.18;5.75;;;;;;;-6.51;100.00;102416.09;5035112;28;20099;-67
2023/11/22 02:55:09;;;;;;;7.70;5.07;;;;;;;-6.30;100.00;102436.66;5035112;28;20037;-67
2023/11/22 02:57:36;;;;;;;5.20;4.68;;;;;;;-6.42;100.00;102393.53;5034827;28;20489;-69
2023/11/22 03:00:07;;;;;;;7.72;5.78;;;;;;;-6.19;100.00;102428.75;5035109;28;20046;-67
2023/11/22 03:02:32;;;;;;;7.97;4.65;;;;;;;-6.21;100.00;102421.00;5034946;28;20074;-67
2023/11/22 03:04:58;;;;;;;9.57;5.27;;;;;;;-6.07;100.00;102433.81;5034905;28;20029;-67
2023/11/22 03:07:27;;;;;;;8.50;4.83;;;;;;;-6.06;100.00;102422.59;5034760;28;20030;-69
2023/11/22 03:09:53;;;;;;;8.20;5.53;;;;;;;-6.18;100.00;102400.22;5034997;28;20030;-69
2023/11/22 03:12:20;;;;;;;4.43;4.03;;;;;;;-6.02;100.00;102416.50;5034601;28;20045;-66
2023/11/22 03:14:49;;;;;;;6.65;5.13;;;;;;;-6.13;100.00;102393.25;5033472;28;20033;-67
2023/11/22 03:17:15;;;;;;;6.60;5.50;;;;;;;-6.12;100.00;102394.97;5034902;28;20535;-65
2023/11/22 03:19:40;;;;;;;4.68;3.80;;;;;;;-6.03;100.00;102410.44;5033603;28;20056;-68
2023/11/22 03:22:06;;;;;;;5.70;4.47;;;;;;;-5.98;100.00;102419.03;5034439;28;20495;-67
2023/11/22 03:24:36;;;;;;;5.13;4.40;;;;;;;-5.97;100.00;102431.13;5033107;28;20037;-66
2023/11/22 03:27:03;;;;;;;7.40;4.95;;;;;;;-5.96;100.00;102432.84;5033133;28;20520;-67
2023/11/22 03:29:31;;;;;;;6.07;4.67;;;;;;;-6.05;100.00;102396.63;5034463;28;20072;-69
2023/11/22 03:31:56;;;;;;;5.22;3.67;;;;;;;-6.05;100.00;102401.81;5034379;28;20053;-67
2023/11/22 03:34:22;;;;;;;5.83;5.03;;;;;;;-6.00;100.00;102405.22;5034487;28;20045;-69
2023/11/22 03:36:48;;;;;;;7.57;5.37;;;;;;;-6.35;100.00;102361.53;5034645;28;20032;-65
2023/11/22 03:39:15;;;;;;;5.80;4.53;;;;;;;-6.18;100.00;102387.25;5034466;28;20103;-69
2023/11/22 03:41:42;;;;;;;7.15;4.20;;;;;;;-6.03;100.00;102415.63;5033992;28;20173;-67
2023/11/22 03:44:11;;;;;;;6.93;4.88;;;;;;;-6.01;100.00;102413.88;5034280;28;20056;-68
2023/11/22 03:46:37;;;;;;;;;;;;;;;-5.96;100.00;102413.81;5034657;28;20028;-69
2023/11/22 03:49:08;;;;;;;5.00;4.15;;;;;;;-5.94;100.00;102415.53;5033935;28;20274;-67
2023/11/22 03:51:36;;;;;;;6.00;4.80;;;;;;;-6.04;100.00;102403.53;5034151;28;20507;-67
2023/11/22 03:54:02;;;;;;;5.10;4.43;;;;;;;-6.03;100.00;102397.47;5034239;28;20041;-67
2023/11/22 03:56:28;;;;;;;5.68;4.63;;;;;;;-5.90;100.00;102413.75;5033419;28;20066;-67
2023/11/22 03:58:54;;;;;;;5.50;4.60;;;;;;;-5.84;100.00;102416.22;5034160;28;20037;-69
2023/11/22 04:01:20;;;;;;;4.65;4.25;;;;;;;-5.82;100.00;102409.28;5034040;28;20037;-68
2023/11/22 04:03:48;;;;;;;5.97;3.63;;;;;;;-5.79;100.00;102413.56;5033681;28;20132;-67
2023/11/22 04:06:18;;;;;;;5.50;4.00;;;;;;;-5.79;100.00;102418.75;5033395;28;20439;-65
2023/11/22 04:08:45;;;;;;;4.57;3.63;;;;;;;-5.86;100.00;102417.13;5033901;28;20120;-67
2023/11/22 04:11:15;;;;;;;5.47;4.28;;;;;;;-5.90;100.00;102416.34;5034153;28;20536;-68
2023/11/22 04:13:41;;;;;;;5.80;3.80;;;;;;;-5.93;100.00;102419.84;5032587;28;20041;-67
2023/11/22 04:16:12;;;;;;;5.63;3.90;;;;;;;-6.13;100.00;102387.19;5033897;28;20033;-67
2023/11/22 04:18:40;;;;;;;4.05;3.67;;;;;;;-6.04;100.00;102410.47;5033558;28;20036;-68
2023/11/22 04:21:10;;;;;;;10.27;5.90;;;;;;;-6.08;100.00;102417.38;5034535;28;20124;-67
2023/11/22 04:23:38;;;;;;;6.78;4.57;;;;;;;-6.11;100.00;102409.66;5035110;28;20045;-68
2023/11/22 04:26:07;;;;;;;8.02;4.30;;;;;;;-6.20;100.00;102395.94;5033323;28;20068;-67
2023/11/22 04:28:33;;;;;;;7.45;4.85;;;;;;;-6.12;100.00;102409.66;5037480;28;20056;-67
2023/11/22 04:30:59;;;;;;;5.07;4.00;;;;;;;-6.32;100.00;102369.28;5037905;28;20081;-65
2023/11/22 04:33:24;;;;;;;6.33;4.00;;;;;;;-6.10;100.00;102403.59;5036631;28;20033;-65
2023/11/22 04:35:54;;;;;;;7.07;4.00;;;;;;;-6.19;100.00;102377.75;5033955;28;20470;-71
2023/11/22 04:38:19;;;;;;;;;;;;;;;-6.02;100.00;102404.38;5032645;28;20052;-67
2023/11/22 04:40:45;;;;;;;4.10;3.77;;;;;;;-6.04;100.00;102413.06;5032076;28;19920;-67
2023/11/22 04:43:13;;;;;;;3.92;3.58;;;;;;;-6.15;100.00;102392.41;5031163;28;20128;-66
2023/11/22 04:45:39;;;;;;;4.53;4.03;;;;;;;-6.12;100.00;102405.34;5033568;28;20122;-69
2023/11/22 04:48:06;;;;;;;4.23;3.93;;;;;;;-6.27;100.00;102374.41;5033289;28;20032;-71
2023/11/22 04:50:32;;;;;;;5.47;3.80;;;;;;;-6.22;100.00;102370.03;5031829;28;20853;-69
2023/11/22 04:52:58;;;;;;;3.65;3.30;;;;;;;-6.16;100.00;102382.06;5033253;28;20033;-67
2023/11/22 04:55:43;;;;;;;3.23;3.03;;;;;;;-5.99;100.00;102401.75;5033268;28;20048;-74
2023/11/22 04:58:11;;;;;;;3.72;3.20;;;;;;;-6.20;99.98;102368.25;5031494;28;20508;-67
2023/11/22 05:00:37;;;;;;;4.20;3.80;;;;;;;-5.96;100.00;102414.69;5032976;28;20041;-69
2023/11/22 05:03:02;;;;;;;3.10;2.80;;;;;;;-6.05;99.05;102375.03;5031774;28;20033;-67
2023/11/22 05:05:28;;;;;;;3.20;2.90;;;;;;;-5.93;99.42;102385.25;5032661;28;20566;-67
2023/11/22 05:07:54;;;;;;;4.03;3.73;;;;;;;-5.77;98.96;102406.66;5032242;28;20033;-69
2023/11/22 05:10:19;;;;;;;3.60;3.27;;;;;;;-5.91;98.71;102380.91;5031521;28;20083;-68
2023/11/22 05:12:45;;;;;;;3.97;2.70;;;;;;;-5.78;97.87;102394.53;5032602;28;20041;-67
2023/11/22 05:15:11;;;;;;;4.23;3.40;;;;;;;-5.90;98.12;102386.94;5033049;28;20045;-67
2023/11/22 05:17:37;;;;;;;3.50;3.13;;;;;;;-5.89;98.59;102380.88;5031923;28;20033;-68
2023/11/22 05:20:05;;;;;;;3.67;3.03;;;;;;;-5.89;98.14;102379.09;5031512;28;20048;-66
2023/11/22 05:22:31;;;;;;;4.43;2.88;;;;;;;-5.82;97.16;102408.44;5026309;28;20525;-68
2023/11/22 05:24:57;;;;;;;2.70;2.50;;;;;;;-5.81;97.35;102407.56;5024113;28;20102;-70
2023/11/22 05:27:24;;;;;;;3.43;3.13;;;;;;;-5.85;97.19;102403.28;5026261;28;20068;-66
2023/11/22 05:29:50;;;;;;;3.15;2.85;;;;;;;-5.82;97.08;102400.66;5026628;28;20042;-67
2023/11/22 05:32:17;;;;;;;3.73;3.40;;;;;;;-5.84;97.42;102394.63;5021407;28;20038;-70
2023/11/22 05:34:42;;;;;;;4.13;3.28;;;;;;;-5.79;97.37;102403.19;5018234;28;20052;-69
2023/11/22 05:37:08;;;;;;;3.60;3.30;;;;;;;-5.87;97.30;102379.09;5027147;28;20477;-69
2023/11/22 05:39:34;;;;;;;4.17;3.77;;;;;;;-5.85;97.99;102369.56;5010908;28;20029;-66
2023/11/22 05:42:00;;;;;;;4.67;4.27;;;;;;;-5.74;97.70;102370.28;5010822;28;20289;-66
2023/11/22 05:44:26;;;;;;;4.05;3.65;;;;;;;-5.82;97.41;102364.31;5011225;28;20134;-65
2023/11/22 05:46:52;;;;;;;5.97;5.37;;;;;;;-5.64;96.59;102392.66;5012835;28;20132;-67
2023/11/22 05:49:17;;;;;;;4.75;3.78;;;;;;;-5.86;96.36;102375.63;5012337;28;20030;-69
2023/11/22 05:51:43;;;;;;;4.63;4.17;;;;;;;-5.69;96.73;102386.66;5011495;28;20045;-74
2023/11/22 05:54:11;;;;;;;5.03;3.83;;;;;;;-5.86;97.19;102352.25;5012680;28;20038;-67
2023/11/22 05:56:37;;;;;;;5.00;3.30;;;;;;;-5.55;97.23;102386.47;5012560;28;20038;-68
2023/11/22 05:59:03;;;;;;;5.57;3.50;;;;;;;-5.49;97.37;102376.88;5012634;28;20038;-70
2023/11/22 06:01:30;;;;;;;4.00;3.55;;;;;;;-5.45;95.63;102373.34;5012392;28;20471;-66
2023/11/22 06:03:55;;;;;;;5.63;4.22;;;;;;;-5.64;95.00;102345.94;5012392;28;20049;-67
2023/11/22 06:06:22;;;;;;;3.83;3.43;;;;;;;-5.45;94.68;102368.16;5010962;28;20030;-66
2023/11/22 06:08:49;;;;;;;7.25;4.85;;;;;;;-5.43;95.97;102361.22;5010985;28;20078;-68
2023/11/22 06:11:17;;;;;;;4.65;3.50;;;;;;;-5.20;94.81;102379.06;5011517;28;20409;-68
2023/11/22 06:13:46;;;;;;;5.93;4.53;;;;;;;-5.24;94.49;102366.97;5011884;28;20038;-67
2023/11/22 06:16:13;;;;;;;6.07;4.03;;;;;;;-5.06;94.07;102386.63;5012113;28;20069;-66
2023/11/22 06:18:40;;;;;;;5.47;3.30;;;;;;;-5.05;92.83;102383.16;5012000;28;20050;-67
2023/11/22 06:21:08;;;;;;;6.50;3.65;;;;;;;-5.07;93.37;102379.72;5015758;28;20068;-67
2023/11/22 06:23:34;;;;;;;4.40;3.78;;;;;;;-5.10;93.84;102380.63;5016571;28;20133;-65
2023/11/22 06:25:59;;;;;;;9.33;3.70;;;;;;;-5.08;93.44;102378.00;5017425;28;20084;-68
2023/11/22 06:28:25;;;;;;;3.83;3.40;;;;;;;-5.44;92.16;102317.97;5020828;28;20100;-67
2023/11/22 06:30:51;;;;;;;8.93;5.07;;;;;;;-5.09;91.78;102384.09;5017598;28;20524;-68
2023/11/22 06:33:16;;;;;;;4.73;3.83;;;;;;;-5.22;92.29;102367.81;5016547;28;20037;-67
2023/11/22 06:35:42;;;;;;;4.47;3.67;;;;;;;-5.40;92.27;102340.38;5017162;28;20038;-65
2023/11/22 06:38:08;;;;;;;6.17;4.77;;;;;;;-5.38;92.53;102333.44;5015713;28;20034;-66
2023/11/22 06:40:34;;;;;;;4.93;4.45;;;;;;;-5.07;91.49;102369.31;5013032;28;20051;-66
2023/11/22 06:43:00;;;;;;;5.83;3.90;;;;;;;-5.03;91.58;102379.63;5020602;28;20549;-65
2023/11/22 06:45:26;;;;;;;4.60;4.20;;;;;;;-5.13;91.41;102359.03;5018139;28;20033;-63
2023/11/22 06:47:52;;;;;;;6.17;4.63;;;;;;;-5.00;91.11;102369.19;5026165;28;20034;-64
2023/11/22 06:50:18;;;;;;;4.97;4.00;;;;;;;-5.13;91.67;102344.31;5030151;28;20065;-65
2023/11/22 06:52:45;;;;;;;8.63;5.03;;;;;;;-4.99;91.74;102354.47;5030454;28;20048;-66
2023/11/22 06:55:11;;;;;;;4.32;3.53;;;;;;;-4.83;90.50;102381.06;5019111;28;20072;-65
2023/11/22 06:57:37;;;;;;;4.77;4.30;;;;;;;-4.87;90.95;102366.41;5029790;28;20049;-66
2023/11/22 07:00:05;;;;;;;3.42;3.00;;;;;;;-5.20;91.05;102321.91;5022286;28;20649;-65
2023/11/22 07:02:32;;;;;;;6.20;3.75;;;;;;;-5.01;91.08;102361.44;5014598;28;20041;-65
2023/11/22 07:05:01;;;;;;;6.60;3.40;;;;;;;-5.10;91.32;102340.81;5015772;28;20048;-66
2023/11/22 07:07:27;;;;;;;3.75;3.45;;;;;;;-5.01;92.18;102369.22;5015714;28;20040;-65
2023/11/22 07:09:52;;;;;;;6.72;3.83;;;;;;;-5.09;92.30;102363.31;5015582;28;20060;-66
2023/11/22 07:12:19;;;;;;;5.33;4.30;;;;;;;-5.19;92.49;102364.34;5015670;28;20030;-69
2023/11/22 07:14:45;;;;;;;5.32;3.25;;;;;;;-5.42;92.72;102331.78;5015734;28;20030;-63
2023/11/22 07:17:10;;;;;;;4.03;3.10;;;;;;;-5.41;93.04;102343.00;5016156;28;20044;-65
2023/11/22 07:19:38;;;;;;;9.83;3.83;;;;;;;-5.41;92.77;102353.41;5014507;28;20513;-64
2023/11/22 07:22:15;;;;;;;5.03;3.28;;;;;;;-5.47;92.96;102353.50;5017104;28;20037;-64
2023/11/22 07:24:47;;;;;;;4.55;3.03;;;;;;;-5.43;93.51;102376.78;5022987;28;20501;-66
2023/11/22 07:27:13;;;;;;;3.88;3.17;;;;;;;-5.47;93.45;102358.69;5036718;28;20050;-65
2023/11/22 07:29:41;;;;;;;6.28;4.30;;;;;;;-5.58;93.55;102350.16;5036415;28;20025;-66
2023/11/22 07:32:10;;;;;;;8.30;3.35;;;;;;;-5.71;93.87;102339.09;5028202;28;20042;-66
2023/11/22 07:34:36;;;;;;;;;;;;;;;-5.60;94.33;102368.34;5031142;28;20046;-67
2023/11/22 07:37:02;;;;;;;4.87;3.53;;;;;;;-5.88;93.45;102315.09;5033878;28;19912;-66
2023/11/22 07:39:28;;;;;;;3.78;2.95;;;;;;;-5.65;93.86;102362.38;5038213;28;20086;-68
2023/11/22 07:41:55;;;;;;;3.85;3.30;;;;;;;-5.75;93.83;102343.47;5033708;28;20493;-67
2023/11/22 07:44:21;;;;;;;4.68;3.28;;;;;;;-5.70;94.26;102344.28;5037191;28;20080;-66
2023/11/22 07:46:47;;;;;;;4.50;2.92;;;;;;;-5.69;94.44;102348.59;5038013;28;20094;-68
2023/11/22 07:49:15;;;;;;;3.67;3.33;;;;;;;-5.91;94.96;102310.00;5037359;28;20046;-68
2023/11/22 07:51:41;;;;;;;3.60;3.30;;;;;;;-5.88;94.80;102315.97;5038619;28;20316;-70
2023/11/22 07:54:08;;;;;;;4.23;3.20;;;;;;;-5.76;95.63;102330.53;5036893;28;20038;-71
2023/11/22 07:56:34;;;;;;;5.55;3.30;;;;;;;-5.86;95.72;102318.53;5021211;28;20044;-70
2023/11/22 07:58:59;;;;;;;3.67;3.33;;;;;;;-5.93;96.29;102308.28;5014452;28;20042;-68
2023/11/22 08:01:25;;;;;;;3.80;3.13;;;;;;;-5.78;97.26;102327.97;5013578;28;20042;-65
2023/11/22 08:03:51;;;;;;;9.47;6.03;;;;;;;-5.72;97.20;102342.59;5014268;28;20038;-66
2023/11/22 08:06:17;;;;;;;8.65;6.40;;;;;;;-5.79;97.39;102340.91;5014776;28;20041;-66
2023/11/22 08:08:45;;;;;;;5.17;4.00;;;;;;;-6.09;98.33;102304.16;5016354;28;20045;-67
2023/11/22 08:11:14;;;;;;;3.78;3.42;;;;;;;-5.83;97.78;102334.06;5016213;28;20030;-67
2023/11/22 08:13:42;;;;;;;4.05;3.65;;;;;;;-6.12;97.81;102291.22;5014607;28;20072;-67
2023/11/22 08:16:09;;;;;;;4.18;3.20;;;;;;;-5.90;98.45;102332.47;5013973;28;20481;-67
2023/11/22 08:18:34;;;;;;;4.78;3.40;;;;;;;-6.00;99.47;102306.66;5014330;28;20050;-68
2023/11/22 08:21:00;;;;;;;7.17;4.47;;;;;;;-5.81;99.80;102325.38;5013227;28;20083;-68
2023/11/22 08:23:30;;;;;;;6.03;3.40;;;;;;;-5.83;98.96;102313.31;5013884;28;20048;-71
2023/11/22 08:25:56;;;;;;;5.28;3.47;;;;;;;-5.93;98.57;102295.31;5013977;28;20072;-70
2023/11/22 08:28:23;;;;;;;6.82;3.42;;;;;;;-5.82;97.61;102304.63;5013558;28;20070;-69
2023/11/22 08:30:49;;;;;;;4.25;3.33;;;;;;;-6.14;97.71;102254.09;5013665;28;20042;-66
2023/11/22 08:33:14;;;;;;;6.00;3.30;;;;;;;-6.02;98.80;102277.28;5014089;28;20087;-70
2023/11/22 08:35:40;;;;;;;3.83;3.50;;;;;;;-5.90;98.56;102284.03;5012940;28;20041;-69
2023/11/22 08:38:09;;;;;;;3.67;3.30;;;;;;;-5.71;98.21;102298.44;5025977;28;20064;-71
2023/11/22 08:40:36;;;;;;;3.60;3.30;;;;;;;-5.74;97.91;102282.06;5032622;28;20409;-68
2023/11/22 08:43:04;;;;;;;4.60;3.38;;;;;;;-5.55;97.13;102290.41;5032646;28;20065;-67
2023/11/22 08:45:31;;;;;;;3.70;3.40;;;;;;;-5.41;96.15;102299.72;5030822;28;20114;-67
2023/11/22 08:47:58;;;;;;;4.32;3.80;;;;;;;-5.51;95.82;102266.97;5032969;28;20033;-65
2023/11/22 08:50:24;;;;;;;3.85;3.42;;;;;;;-5.37;96.71;102278.03;5032057;28;20048;-67
2023/11/22 08:52:52;;;;;;;4.37;3.47;;;;;;;-5.34;95.96;102293.56;5030529;28;20045;-66
2023/11/22 08:55:22;;;;;;;4.80;4.40;;;;;;;-5.39;96.86;102284.13;5030203;28;20048;-65
2023/11/22 08:57:50;;;;;;;3.65;3.22;;;;;;;-5.37;96.51;102293.59;5032695;28;20484;-68
2023/11/22 09:00:22;;;;;;;5.22;3.40;;;;;;;-5.57;96.51;102258.44;5032408;28;20481;-68
2023/11/22 09:02:49;;;;;;;4.13;3.83;;;;;;;-5.62;95.82;102254.19;5032482;28;20447;-64
2023/11/22 09:05:16;;;;;;;4.75;3.85;;;;;;;-5.63;96.38;102264.59;5029793;28;20033;-69
2023/11/22 09:07:44;;;;;;;5.95;2.95;;;;;;;-5.80;96.62;102256.19;5031152;28;20041;-68
2023/11/22 09:10:13;;;;;;;3.25;2.97;;;;;;;-5.75;97.49;102267.38;5030975;28;20083;-69
2023/11/22 09:12:42;;;;;;;4.40;3.22;;;;;;;-5.82;97.16;102255.34;5031543;28;20102;-69
2023/11/22 09:15:10;;;;;;;3.63;3.33;;;;;;;-5.80;98.05;102261.38;5030610;28;20056;-66
2023/11/22 09:17:48;;;;;;;3.80;3.40;;;;;;;-5.72;97.79;102265.59;5031710;28;20033;-66
2023/11/22 09:20:15;;;;;;;3.70;3.38;;;;;;;-5.78;98.26;102249.22;5032189;28;20401;-66
2023/11/22 09:22:45;;;;;;;6.07;3.95;;;;;;;-5.65;99.30;102250.78;5031077;28;20405;-67
2023/11/22 09:25:12;;;;;;;5.63;3.95;;;;;;;-5.59;98.39;102247.22;5031885;28;20049;-64
2023/11/22 09:27:37;;;;;;;4.75;4.30;;;;;;;-5.43;97.57;102259.94;5032136;28;20076;-66
2023/11/22 09:30:05;;;;;;;3.40;3.10;;;;;;;-5.58;95.59;102231.63;5031259;28;20358;-66
2023/11/22 09:32:30;;;;;;;4.30;3.40;;;;;;;-5.45;96.11;102248.75;5032091;28;20045;-67
2023/11/22 09:34:58;;;;;;;4.20;3.27;;;;;;;-5.51;96.23;102235.84;5032177;28;20056;-65
2023/11/22 09:37:25;;;;;;;5.80;3.72;;;;;;;-5.55;96.46;102216.00;5031914;28;20033;-67
2023/11/22 09:39:51;;;;;;;4.50;3.53;;;;;;;-5.36;95.85;102240.78;5031526;28;20040;-66
2023/11/22 09:42:16;;;;;;;4.40;3.65;;;;;;;-5.40;95.26;102220.94;5031014;28;20068;-64
2023/11/22 09:44:43;;;;;;;4.80;4.30;;;;;;;-5.32;95.50;102237.25;5030093;28;20080;-69
2023/11/22 09:47:10;;;;;;;4.32;3.10;;;;;;;-5.47;95.67;102200.31;5030720;28;20037;-67
2023/11/22 09:49:40;;;;;;;4.13;3.70;;;;;;;-5.27;94.80;102215.53;5032146;28;20038;-66
2023/11/22 09:52:12;;;;;;;3.28;2.92;;;;;;;-5.23;94.17;102230.19;5030460;28;20056;-68
2023/11/22 09:54:40;;;;;;;4.88;4.18;;;;;;;-5.19;94.01;102245.72;5031506;28;20052;-67
2023/11/22 09:57:10;;;;;;;4.28;3.83;;;;;;;-5.21;93.61;102228.41;5031860;28;20139;-65
2023/11/22 09:59:40;;;;;;;3.10;2.90;;;;;;;-5.52;93.96;102179.59;5032219;28;20042;-66
2023/11/22 10:02:06;;;;;;;6.65;4.30;;;;;;;-5.45;93.73;102196.81;5031963;28;20037;-68
2023/11/22 10:04:32;;;;;;;7.93;3.28;;;;;;;-5.45;94.20;102196.81;5030275;28;20428;-65
2023/11/22 10:07:01;;;;;;;3.63;3.33;;;;;;;-5.42;94.58;102198.50;5031825;28;20025;-67
2023/11/22 10:09:29;;;;;;;3.13;2.83;;;;;;;-5.38;94.23;102207.94;5032114;28;20029;-66
2023/11/22 10:12:01;;;;;;;4.90;3.28;;;;;;;-5.47;94.12;102196.00;5033158;28;20045;-67
2023/11/22 10:14:27;;;;;;;4.82;3.47;;;;;;;-5.38;94.04;102193.22;5031210;28;20099;-65
2023/11/22 10:17:00;;;;;;;3.50;3.20;;;;;;;-5.27;94.59;102200.81;5031621;28;20034;-67
2023/11/22 10:19:27;;;;;;;3.15;2.88;;;;;;;-5.34;94.26;102171.50;5031389;28;20032;-66
2023/11/22 10:22:07;;;;;;;3.28;2.97;;;;;;;-5.48;94.28;102142.34;5031821;28;20046;-66
2023/11/22 10:24:33;;;;;;;5.15;2.60;;;;;;;-5.16;93.11;102179.88;5031461;28;20029;-68
2023/11/22 10:27:02;;;;;;;6.35;2.95;;;;;;;-5.14;92.63;102170.31;5031499;28;20073;-69
2023/11/22 10:29:29;;;;;;;3.25;2.80;;;;;;;-4.96;92.55;102187.28;5031289;28;20060;-66
2023/11/22 10:31:55;;;;;;;3.47;3.15;;;;;;;-5.07;91.86;102164.09;5031281;28;20041;-69
2023/11/22 10:34:25;;;;;;;4.93;3.30;;;;;;;-4.96;91.71;102177.72;5031703;28;20044;-67
2023/11/22 10:36:50;;;;;;;2.97;2.63;;;;;;;-4.88;91.75;102175.88;5030547;28;20485;-66
2023/11/22 10:39:20;;;;;;;6.67;4.27;;;;;;;-4.80;91.19;102186.97;5031379;28;20052;-66
2023/11/22 10:41:46;;;;;;;3.67;3.38;;;;;;;-4.85;90.13;102168.00;5030071;28;20033;-66
2023/11/22 10:44:11;;;;;;;3.20;2.90;;;;;;;-4.79;88.79;102180.03;5030945;28;20457;-68
2023/11/22 10:46:39;;;;;;;2.87;2.67;;;;;;;-5.07;88.50;102148.50;5031482;28;20041;-66
2023/11/22 10:49:05;;;;;;;4.78;2.40;;;;;;;-5.04;88.59;102153.66;5031240;28;20045;-66
2023/11/22 10:51:33;;;;;;;2.90;2.70;;;;;;;-5.27;89.00;102103.88;5031383;28;20067;-67
2023/11/22 10:54:03;;;;;;;2.80;2.60;;;;;;;-4.90;88.71;102164.66;5031045;28;20052;-68
2023/11/22 10:56:37;;;;;;;6.50;3.05;;;;;;;-4.77;88.93;102157.44;5031551;28;20067;-67
2023/11/22 10:59:09;;;;;;;7.20;2.92;;;;;;;-4.46;87.35;102170.66;5029908;28;20065;-65
2023/11/22 11:01:36;;;;;;;3.83;3.15;;;;;;;-4.63;85.32;102138.97;5031251;28;20456;-64
2023/11/22 11:04:07;;;;;;;2.67;2.47;;;;;;;-4.64;85.46;102140.69;5030090;28;20088;-68
2023/11/22 11:06:34;;;;;;;4.75;3.38;;;;;;;-5.01;85.24;102096.44;5033490;28;20047;-66
2023/11/22 11:09:06;;;;;;;3.35;2.72;;;;;;;-4.68;84.25;102170.25;5036109;28;20124;-67
2023/11/22 11:11:34;;;;;;;3.63;2.97;;;;;;;-4.85;84.84;102157.63;5035275;28;20447;-65
2023/11/22 11:14:01;;;;;;;5.65;4.18;;;;;;;-5.00;83.72;102142.31;5035002;28;20092;-65
2023/11/22 11:16:28;;;;;;;2.70;2.50;;;;;;;-5.12;84.48;102137.38;5034937;28;20056;-66
2023/11/22 11:18:54;;;;;;;2.50;2.30;;;;;;;-5.02;84.91;102149.28;5034519;28;20072;-70
2023/11/22 11:21:20;;;;;;;3.42;2.40;;;;;;;-5.14;84.70;102144.34;5025496;28;20045;-68